Time;durP1;ratioP1;P1;durP2;ratioP2;P2;SDS_P1;SDS_P2;PMS_P1;PMS_P2;Temp;Humidity;BMP_temperature;BMP_pressure;BME280_temperature;BME280_humidity;BME280_pressure;Samples;Min_cycle;Max_cycle;Signal;HPM_P1;HPM_P2
2024/03/23 00:01:52;;;;;;;11.83;2.80;;;14.80;99.90;;;15.05;58.01;100578.28;5974811;22;105716;-36
2024/03/23 00:04:20;;;;;;;4.37;2.13;;;14.70;99.90;;;15.06;58.98;100589.75;6026801;22;112465;-37
2024/03/23 00:06:47;;;;;;;7.23;2.93;;;14.70;99.90;;;14.95;59.51;100582.38;6010738;22;97556;-37
2024/03/23 00:09:14;;;;;;;8.77;2.97;;;14.50;99.90;;;14.85;57.67;100575.84;6006162;22;109809;-37
2024/03/23 00:11:41;;;;;;;5.70;3.03;;;14.50;99.90;;;14.82;58.72;100573.38;5997285;22;112763;-35
2024/03/23 00:14:09;;;;;;;5.60;2.73;;;14.40;99.90;;;14.92;59.83;100565.75;6014859;22;97494;-36
2024/03/23 00:16:36;;;;;;;3.57;2.00;;;14.50;99.90;;;15.02;58.93;100565.16;5971468;22;111910;-36
2024/03/23 00:19:03;;;;;;;5.90;2.53;;;14.60;99.90;;;14.69;60.31;100564.34;5997781;22;109861;-37
2024/03/23 00:21:31;;;;;;;11.53;2.43;;;14.30;99.90;;;14.74;58.97;100554.31;6008821;22;115726;-36
2024/03/23 00:23:58;;;;;;;3.73;1.83;;;14.30;99.90;;;14.85;60.79;100549.28;6021078;22;99509;-36
2024/03/23 00:26:28;;;;;;;10.93;2.67;;;14.30;99.90;;;14.71;60.76;100558.00;5985007;22;97675;-37
2024/03/23 00:28:56;;;;;;;9.53;2.87;;;14.20;99.90;;;14.63;57.77;100559.38;6023196;22;98078;-36
2024/03/23 00:31:23;;;;;;;6.90;3.00;;;14.20;99.90;;;14.73;58.90;100547.28;5967477;22;119715;-37
2024/03/23 00:33:50;;;;;;;9.57;2.90;;;14.20;99.90;;;14.64;59.72;100550.47;5971081;22;106767;-37
2024/03/23 00:36:17;;;;;;;7.90;3.07;;;14.20;99.90;;;14.44;58.55;100555.03;5970085;22;113111;-37
2024/03/23 00:38:47;;;;;;;6.40;2.10;;;14.00;99.90;;;14.55;60.68;100539.41;6018248;22;105439;-37
2024/03/23 00:41:15;;;;;;;9.03;2.67;;;14.00;99.90;;;14.34;57.57;100537.03;5954118;22;99457;-38
2024/03/23 00:43:42;;;;;;;10.27;2.60;;;13.90;99.90;;;14.21;59.69;100536.81;5972347;22;97428;-36
2024/03/23 00:46:09;;;;;;;7.33;2.90;;;13.80;99.90;;;14.13;59.50;100539.84;5971529;22;97849;-37
2024/03/23 00:48:36;;;;;;;8.77;2.57;;;13.70;99.90;;;14.26;61.14;100535.59;6017706;22;119427;-37
2024/03/23 00:51:04;;;;;;;6.57;3.53;;;13.70;99.90;;;14.06;59.66;100543.75;5941030;22;109831;-37
2024/03/23 00:53:34;;;;;;;5.50;2.23;;;13.70;99.90;;;14.11;61.30;100547.03;5989524;22;97554;-37
2024/03/23 00:56:00;;;;;;;11.00;3.87;;;13.60;99.90;;;14.06;60.07;100543.75;5993253;22;97607;-37
2024/03/23 00:58:26;;;;;;;7.40;2.53;;;13.60;99.90;;;13.84;60.51;100546.66;5992691;22;101383;-35
2024/03/23 01:00:51;;;;;;;6.80;2.67;;;13.50;99.90;;;14.01;61.42;100543.13;6015408;22;98520;-36
2024/03/23 01:03:17;;;;;;;6.60;1.53;;;13.50;99.90;;;13.91;61.60;100540.09;6006420;22;112318;-36
2024/03/23 01:05:43;;;;;;;4.40;1.50;;;13.50;99.90;;;13.95;62.21;100535.50;5993727;22;97601;-47
2024/03/23 01:08:09;;;;;;;3.20;1.30;;;13.60;99.90;;;14.11;61.86;100535.56;6045164;22;114041;-37
2024/03/23 01:10:35;;;;;;;3.73;1.37;;;13.80;99.90;;;14.07;61.61;100534.00;6012467;22;97543;-36
2024/03/23 01:13:01;;;;;;;1.70;1.23;;;13.80;99.90;;;14.15;58.55;100531.81;6038477;22;97148;-37
2024/03/23 01:15:27;;;;;;;3.90;1.27;;;13.90;99.90;;;14.05;61.65;100527.94;6022183;22;97718;-37
2024/03/23 01:17:55;;;;;;;2.13;1.00;;;13.80;99.90;;;14.08;60.84;100525.13;6032726;22;99730;-36
2024/03/23 01:20:21;;;;;;;2.20;1.20;;;13.80;99.90;;;14.20;59.96;100529.78;6001946;22;99726;-36
2024/03/23 01:22:47;;;;;;;3.67;1.13;;;13.90;99.90;;;14.10;57.74;100523.25;6019129;22;97334;-35
2024/03/23 01:25:13;;;;;;;2.60;1.37;;;13.80;99.90;;;14.25;59.08;100517.97;6036008;22;97559;-37
2024/03/23 01:27:38;;;;;;;4.87;1.27;;;13.90;99.90;;;14.20;61.70;100513.88;5972984;22;106462;-37
2024/03/23 01:30:05;;;;;;;2.13;1.07;;;13.80;99.90;;;14.16;59.98;100518.44;6012794;22;122456;-36
2024/03/23 01:32:31;;;;;;;1.17;0.63;;;13.80;99.90;;;14.05;58.30;100514.69;5992496;22;97982;-36
2024/03/23 01:34:57;;;;;;;1.53;1.07;;;13.70;99.90;;;14.09;57.92;100522.38;5965134;22;107104;-37
2024/03/23 01:37:25;;;;;;;3.27;0.97;;;13.80;99.90;;;13.98;56.62;100520.28;5990095;22;109749;-35
2024/03/23 01:39:53;;;;;;;3.67;0.90;;;13.80;99.90;;;14.10;61.40;100537.34;6017186;22;115043;-37
2024/03/23 01:42:20;;;;;;;2.57;1.03;;;13.70;99.90;;;14.04;62.01;100524.44;5966549;22;98331;-35
2024/03/23 01:44:46;;;;;;;2.80;1.00;;;13.60;99.90;;;14.17;61.32;100516.66;5965124;22;97608;-35
2024/03/23 01:47:12;;;;;;;1.90;0.80;;;13.70;99.90;;;14.24;61.45;100515.41;5938846;22;99509;-36
2024/03/23 01:49:38;;;;;;;3.03;0.80;;;13.70;99.90;;;14.12;57.46;100521.34;5941477;22;119719;-36
2024/03/23 01:52:04;;;;;;;2.70;0.80;;;13.70;99.90;;;14.12;61.09;100526.66;5970763;22;97854;-37
2024/03/23 01:54:31;;;;;;;3.00;1.10;;;13.60;99.90;;;14.26;61.61;100524.13;5997417;22;98019;-36
2024/03/23 01:56:57;;;;;;;8.77;1.20;;;13.70;99.90;;;14.00;56.18;100518.41;5967167;22;101024;-35
2024/03/23 01:59:23;;;;;;;2.63;0.90;;;13.60;99.90;;;14.09;57.71;100516.22;5982482;22;97486;-36
2024/03/23 02:01:52;;;;;;;1.90;0.87;;;13.60;99.90;;;13.94;57.69;100524.03;5942759;23;97482;-36
2024/03/23 02:04:17;;;;;;;2.33;1.00;;;13.40;99.90;;;13.97;62.42;100521.22;5961588;22;99009;-37
2024/03/23 02:06:43;;;;;;;1.20;0.77;;;13.40;99.90;;;13.74;59.79;100525.97;5991261;22;118696;-36
2024/03/23 02:09:12;;;;;;;1.70;0.67;;;13.20;99.90;;;13.76;59.46;100534.72;5947279;22;101675;-37
2024/03/23 02:11:38;;;;;;;2.20;0.87;;;13.20;99.90;;;13.95;62.58;100523.09;5952440;22;98248;-36
2024/03/23 02:14:09;;;;;;;2.70;1.17;;;13.30;99.90;;;14.00;62.65;100518.41;5983167;22;97418;-37
2024/03/23 02:16:35;;;;;;;2.03;1.03;;;13.40;99.90;;;13.92;59.84;100520.59;5917097;23;103827;-36
2024/03/23 02:19:03;;;;;;;1.10;0.53;;;13.40;99.90;;;13.86;62.15;100515.59;5972130;22;97817;-36
2024/03/23 02:21:31;;;;;;;2.70;1.30;;;13.30;99.90;;;13.88;62.67;100521.69;6004269;22;98437;-36
2024/03/23 02:23:59;;;;;;;3.70;0.90;;;13.40;99.90;;;13.76;57.96;100518.81;5988064;23;98916;-36
2024/03/23 02:26:25;;;;;;;2.20;0.93;;;13.50;99.90;;;13.63;56.15;100518.59;6010871;22;99807;-36
2024/03/23 02:28:51;;;;;;;4.83;0.83;;;13.40;99.90;;;13.55;56.33;100516.31;5997908;22;116421;-38
2024/03/23 02:31:16;;;;;;;1.53;1.20;;;13.30;99.90;;;13.25;55.15;100513.38;5972605;22;101615;-37
2024/03/23 02:33:42;;;;;;;3.33;0.90;;;13.00;99.90;;;13.19;54.44;100519.00;5971311;22;105925;-37
2024/03/23 02:36:08;;;;;;;3.43;0.90;;;12.90;99.90;;;13.31;54.81;100522.84;6030059;22;101946;-36
2024/03/23 02:38:34;;;;;;;2.37;0.80;;;12.90;99.90;;;13.47;63.26;100525.59;6004435;22;98947;-36
2024/03/23 02:41:05;;;;;;;6.07;1.27;;;12.90;99.90;;;13.45;59.25;100530.06;5995369;22;97932;-38
2024/03/23 02:43:31;;;;;;;5.50;1.40;;;12.90;99.90;;;13.40;57.74;100533.81;5986951;22;101052;-36
2024/03/23 02:46:00;;;;;;;3.87;0.97;;;13.00;99.90;;;13.44;60.58;100533.66;5978503;22;112250;-36
2024/03/23 02:48:26;;;;;;;1.30;0.63;;;12.80;99.90;;;13.42;56.33;100535.53;5981889;22;97607;-35
2024/03/23 02:50:54;;;;;;;3.93;1.10;;;12.90;99.90;;;13.56;62.36;100533.06;5991793;22;105237;-36
2024/03/23 02:53:19;;;;;;;3.00;1.10;;;12.90;99.90;;;13.67;62.63;100538.69;5934254;22;97637;-36
2024/03/23 02:55:48;;;;;;;2.97;0.90;;;13.00;99.90;;;13.54;56.70;100524.34;5972368;22;108089;-37
2024/03/23 02:58:14;;;;;;;7.20;1.00;;;13.00;99.90;;;13.60;62.27;100537.31;5995178;22;130921;-35
2024/03/23 03:00:42;;;;;;;3.10;0.90;;;12.90;99.90;;;13.44;56.83;100534.53;6011969;22;114533;-35
2024/03/23 03:03:08;;;;;;;6.63;1.43;;;12.80;99.90;;;13.38;55.37;100533.03;5995942;22;97570;-37
2024/03/23 03:05:34;;;;;;;2.97;1.10;;;12.80;99.90;;;13.20;57.69;100533.94;5989540;22;108017;-36
2024/03/23 03:08:00;;;;;;;5.23;0.83;;;12.60;99.90;;;13.34;61.04;100523.53;6022147;22;111557;-36
2024/03/23 03:10:25;;;;;;;4.63;0.87;;;12.70;99.90;;;13.47;61.10;100522.94;6008749;22;100645;-37
2024/03/23 03:12:53;;;;;;;3.33;0.50;;;12.80;99.90;;;13.25;55.81;100529.28;5984291;22;99542;-35
2024/03/23 03:15:19;;;;;;;2.10;1.00;;;12.70;99.90;;;13.22;59.42;100524.13;5929433;22;108956;-37
2024/03/23 03:17:45;;;;;;;3.80;0.83;;;12.60;99.90;;;13.49;60.47;100515.78;5997439;22;119923;-37
2024/03/23 03:20:13;;;;;;;1.90;0.70;;;12.80;99.90;;;13.34;55.94;100514.75;5995393;22;97813;-37
2024/03/23 03:22:39;;;;;;;1.93;0.80;;;12.80;99.90;;;13.55;57.03;100510.16;6044290;22;98113;-36
2024/03/23 03:25:07;;;;;;;1.43;0.50;;;12.90;99.90;;;13.78;62.39;100504.56;6014589;22;102656;-37
2024/03/23 03:27:34;;;;;;;1.97;0.87;;;13.10;99.90;;;13.63;61.34;100498.25;5984254;22;98449;-37
2024/03/23 03:30:01;;;;;;;4.07;0.73;;;13.00;99.90;;;13.46;56.18;100507.97;5976934;22;108110;-38
2024/03/23 03:32:29;;;;;;;1.87;0.90;;;12.90;99.90;;;13.40;57.33;100517.94;5948451;22;103568;-40
2024/03/23 03:34:55;;;;;;;3.30;0.90;;;12.80;99.90;;;13.46;59.06;100513.28;6002199;22;99828;-36
2024/03/23 03:37:20;;;;;;;1.47;0.63;;;12.70;99.90;;;13.39;57.47;100518.00;5972067;22;125598;-36
2024/03/23 03:39:46;;;;;;;2.10;0.63;;;12.70;99.90;;;13.26;55.44;100509.78;5983926;22;98243;-36
2024/03/23 03:42:12;;;;;;;1.67;0.60;;;12.60;99.90;;;13.34;58.54;100514.75;5981500;22;112273;-37
2024/03/23 03:44:41;;;;;;;1.80;0.77;;;12.60;99.90;;;13.18;56.78;100517.28;6007985;22;103511;-37
2024/03/23 03:47:07;;;;;;;12.27;5.33;;;12.50;99.90;;;13.09;56.97;100512.38;6038403;22;103075;-37
2024/03/23 03:49:33;;;;;;;2.67;1.10;;;12.40;99.90;;;13.00;55.93;100523.41;6075055;22;97533;-36
2024/03/23 03:52:01;;;;;;;2.67;0.73;;;12.40;99.90;;;13.24;62.19;100521.41;6034933;22;99664;-37
2024/03/23 03:54:27;;;;;;;3.50;0.87;;;12.40;99.90;;;13.23;58.07;100515.25;6059853;22;98573;-37
2024/03/23 03:56:53;;;;;;;2.77;0.70;;;12.50;99.90;;;13.39;60.69;100516.22;6033499;22;125941;-37
2024/03/23 03:59:20;;;;;;;2.33;0.77;;;12.60;99.90;;;13.09;56.72;100517.69;6077421;22;97471;-37
2024/03/23 04:01:46;;;;;;;4.13;0.53;;;12.50;99.90;;;12.99;57.65;100525.19;6073080;22;97456;-36
2024/03/23 04:04:11;;;;;;;5.67;1.13;;;12.40;99.90;;;12.81;56.14;100518.97;6050294;23;98011;-36
2024/03/23 04:06:37;;;;;;;2.83;1.27;;;12.30;99.90;;;12.73;57.44;100526.44;6050008;23;98107;-38
2024/03/23 04:09:06;;;;;;;2.50;0.90;;;12.30;99.90;;;12.65;59.77;100528.56;6052329;22;97454;-37
2024/03/23 04:11:32;;;;;;;2.13;0.90;;;12.10;99.90;;;12.56;57.87;100523.69;6035574;22;97896;-34
2024/03/23 04:13:58;;;;;;;3.53;1.00;;;12.10;99.90;;;12.63;61.27;100530.44;6073598;22;127452;-37
2024/03/23 04:16:28;;;;;;;2.33;0.67;;;12.10;99.90;;;12.82;62.77;100520.69;6052329;22;109035;-40
2024/03/23 04:18:54;;;;;;;5.13;1.00;;;12.20;99.90;;;12.39;56.15;100532.41;6053547;23;102164;-36
2024/03/23 04:21:22;;;;;;;3.53;0.80;;;12.00;99.90;;;12.47;57.65;100529.44;6060938;23;103863;-36
2024/03/23 04:23:53;;;;;;;2.43;0.80;;;12.00;99.90;;;12.26;57.02;100525.09;6021445;22;106517;-37
2024/03/23 04:26:19;;;;;;;3.93;1.03;;;11.90;99.90;;;12.46;62.46;100527.72;6049208;23;104659;-35
2024/03/23 04:28:45;;;;;;;2.33;0.83;;;11.90;99.90;;;12.50;60.43;100534.56;6077669;22;112540;-38
2024/03/23 04:31:11;;;;;;;4.20;0.80;;;12.00;99.90;;;12.80;62.29;100522.56;6056710;22;98390;-35
2024/03/23 04:33:36;;;;;;;2.77;0.70;;;12.20;99.90;;;12.90;63.45;100522.16;6062578;22;112339;-37
2024/03/23 04:36:02;;;;;;;5.13;0.77;;;12.20;99.90;;;13.14;60.51;100520.09;6050573;22;99203;-36
2024/03/23 04:38:29;;;;;;;4.77;0.87;;;12.50;99.90;;;13.33;62.55;100529.78;6064194;22;97590;-37
2024/03/23 04:40:59;;;;;;;4.83;0.87;;;12.70;99.90;;;13.32;57.14;100530.72;6061656;22;97469;-36
2024/03/23 04:43:28;;;;;;;1.40;1.03;;;12.80;99.90;;;13.56;60.28;100528.63;6078188;22;108170;-36
2024/03/23 04:45:54;;;;;;;3.20;0.97;;;13.00;99.90;;;13.62;56.81;100530.13;6046278;22;98053;-38
2024/03/23 04:48:24;;;;;;;4.30;1.00;;;13.10;99.90;;;13.25;54.54;100523.97;6072453;22;109434;-34
2024/03/23 04:50:55;;;;;;;2.13;0.90;;;12.80;99.90;;;13.12;56.04;100525.47;6063375;23;97586;-36
2024/03/23 04:53:20;;;;;;;3.40;0.90;;;12.70;99.90;;;12.97;55.72;100534.16;6079310;22;97434;-37
2024/03/23 04:55:46;;;;;;;5.53;1.13;;;12.60;99.90;;;12.95;58.23;100536.00;6079217;22;99208;-33
2024/03/23 04:58:12;;;;;;;2.63;0.67;;;12.50;99.90;;;13.09;62.72;100539.72;6077847;22;110927;-36
2024/03/23 05:00:37;;;;;;;2.83;0.77;;;12.50;99.90;;;13.18;60.12;100527.88;6066022;22;97575;-36
2024/03/23 05:03:06;;;;;;;4.47;0.53;;;12.70;99.90;;;13.30;62.50;100521.94;6042517;23;104976;-37
2024/03/23 05:05:32;;;;;;;5.37;0.70;;;12.80;99.90;;;13.61;61.52;100515.16;6074347;23;98247;-35
2024/03/23 05:07:58;;;;;;;4.17;0.93;;;13.20;99.90;;;13.73;61.36;100519.81;6055080;22;97513;-38
2024/03/23 05:10:23;;;;;;;2.07;0.93;;;13.30;99.90;;;13.59;54.64;100523.16;6013935;22;102130;-35
2024/03/23 05:12:49;;;;;;;3.13;0.50;;;13.30;99.90;;;13.65;60.11;100527.31;6063924;22;99788;-36
2024/03/23 05:15:15;;;;;;;2.60;0.53;;;13.10;99.90;;;13.83;61.00;100528.16;6082143;22;122571;-37
2024/03/23 05:17:40;;;;;;;1.53;0.63;;;13.30;99.90;;;13.87;55.38;100533.22;6052511;22;103331;-36
2024/03/23 05:20:09;;;;;;;4.60;1.00;;;13.50;99.90;;;13.92;59.97;100533.00;6026550;23;106446;-38
2024/03/23 05:22:36;;;;;;;3.73;0.80;;;13.40;99.90;;;14.16;59.25;100538.81;6021272;22;103184;-36
2024/03/23 05:25:11;;;;;;;2.10;0.93;;;13.70;99.90;;;14.04;56.70;100542.13;6061886;22;97873;-37
2024/03/23 05:27:37;;;;;;;2.03;0.53;;;13.70;99.90;;;13.93;57.13;100548.84;6059627;22;98056;-35
2024/03/23 05:30:06;;;;;;;2.27;0.80;;;13.50;99.90;;;13.86;59.95;100558.03;6079910;22;97341;-36
2024/03/23 05:32:34;;;;;;;2.33;0.53;;;13.30;99.90;;;13.57;57.10;100550.69;6069451;22;99547;-36
2024/03/23 05:35:01;;;;;;;1.53;0.70;;;13.20;99.90;;;13.40;55.37;100549.72;6037687;22;100986;-36
2024/03/23 05:37:26;;;;;;;3.80;0.80;;;13.00;99.90;;;13.62;55.53;100543.38;6048063;22;104075;-36
2024/03/23 05:39:52;;;;;;;4.33;0.70;;;13.20;99.90;;;13.60;61.06;100542.59;6029109;23;106863;-36
2024/03/23 05:42:18;;;;;;;2.80;0.87;;;13.10;99.90;;;13.67;56.27;100541.34;6058245;22;111825;-37
2024/03/23 05:44:48;;;;;;;3.17;0.93;;;13.30;99.90;;;13.88;60.25;100540.25;6034754;22;101622;-36
2024/03/23 05:47:17;;;;;;;1.47;0.80;;;13.50;99.90;;;14.08;55.97;100536.59;6023633;22;97444;-35
2024/03/23 05:49:43;;;;;;;7.73;1.27;;;13.90;99.90;;;13.72;52.65;100533.16;6079009;22;97398;-37
2024/03/23 05:52:09;;;;;;;4.73;0.97;;;13.60;99.90;;;14.03;59.26;100543.03;6076510;22;113734;-36
2024/03/23 05:54:36;;;;;;;2.73;0.77;;;13.60;99.90;;;14.10;59.47;100544.47;6021618;23;102411;-35
2024/03/23 05:57:02;;;;;;;5.60;0.80;;;13.80;99.90;;;14.27;59.32;100541.78;6053402;22;98744;-37
2024/03/23 05:59:28;;;;;;;4.73;0.80;;;13.90;99.90;;;14.37;58.23;100543.00;6062559;22;97197;-36
2024/03/23 06:01:54;;;;;;;2.03;0.67;;;14.10;99.90;;;14.21;59.28;100547.41;6062165;22;99199;-41
2024/03/23 06:04:25;;;;;;;3.30;0.90;;;13.90;99.90;;;13.95;54.10;100541.66;6069966;22;117680;-35
2024/03/23 06:06:53;;;;;;;4.87;0.90;;;13.60;99.90;;;14.14;56.53;100553.97;6040415;23;97175;-36
2024/03/23 06:09:19;;;;;;;2.20;0.60;;;13.70;99.90;;;14.02;59.47;100551.94;6044273;23;109865;-36
2024/03/23 06:11:49;;;;;;;2.17;0.87;;;13.50;99.90;;;14.18;59.12;100568.81;6057452;22;99932;-36
2024/03/23 06:14:14;;;;;;;3.13;0.97;;;13.70;99.90;;;14.37;58.77;100574.84;6018939;23;103502;-35
2024/03/23 06:16:40;;;;;;;1.67;0.70;;;14.00;99.90;;;14.53;58.62;100581.09;6069574;23;104673;-37
2024/03/23 06:19:06;;;;;;;6.97;1.53;;;14.30;99.90;;;14.33;51.49;100568.00;6056492;22;96841;-35
2024/03/23 06:21:35;;;;;;;4.50;0.73;;;14.20;99.90;;;14.47;58.36;100573.47;6035580;22;97823;-37
2024/03/23 06:24:00;;;;;;;3.87;0.80;;;14.10;99.90;;;14.61;57.99;100571.84;6076983;22;97692;-37
2024/03/23 06:26:26;;;;;;;2.37;0.80;;;14.20;99.90;;;14.52;58.11;100563.47;6048864;22;97582;-36
2024/03/23 06:28:52;;;;;;;3.10;1.10;;;14.10;99.90;;;14.48;57.29;100567.22;6033174;22;97474;-35
2024/03/23 06:31:20;;;;;;;8.50;1.10;;;14.10;99.90;;;14.40;52.20;100558.75;6060490;22;98875;-37
2024/03/23 06:33:46;;;;;;;2.23;0.80;;;14.10;99.90;;;14.42;55.91;100570.16;6065660;22;101562;-36
2024/03/23 06:36:12;;;;;;;3.73;1.00;;;14.00;99.90;;;14.15;52.63;100559.19;6073878;22;106346;-37
2024/03/23 06:38:40;;;;;;;9.27;1.10;;;13.80;99.90;;;13.88;55.88;100569.41;6065105;22;97567;-35
2024/03/23 06:41:06;;;;;;;3.90;1.63;;;13.50;99.90;;;14.26;59.21;100566.59;6062736;22;123050;-37
2024/03/23 06:43:32;;;;;;;2.70;0.80;;;13.70;99.90;;;14.21;52.40;100568.63;6068478;22;98228;-37
2024/03/23 06:45:58;;;;;;;7.47;1.50;;;13.90;99.90;;;14.07;56.02;100566.69;6032977;23;97536;-37
2024/03/23 06:48:24;;;;;;;3.97;1.53;;;13.70;99.90;;;13.73;56.65;100564.88;6053719;22;97373;-36
2024/03/23 06:50:58;;;;;;;2.40;0.87;;;13.40;99.90;;;14.04;54.37;100577.47;6075652;22;100050;-36
2024/03/23 06:53:24;;;;;;;3.77;1.10;;;13.70;99.90;;;14.18;58.55;100574.97;6076677;22;97541;-36
2024/03/23 06:55:55;;;;;;;4.13;0.87;;;13.80;99.90;;;14.06;57.64;100580.03;6052640;22;106445;-36
2024/03/23 06:58:24;;;;;;;2.20;1.13;;;13.70;99.90;;;14.11;56.87;100573.56;6054422;22;98037;-36
2024/03/23 07:00:50;;;;;;;3.97;1.17;;;13.80;99.90;;;14.30;57.81;100578.75;6081304;22;97295;-36
2024/03/23 07:03:16;;;;;;;3.27;1.20;;;14.00;99.90;;;14.14;56.64;100575.19;6052917;22;97434;-36
2024/03/23 07:05:46;;;;;;;2.00;0.80;;;13.90;99.90;;;14.11;58.23;100578.00;6061308;22;97597;-35
2024/03/23 07:08:12;;;;;;;2.77;0.97;;;13.80;99.90;;;14.05;57.07;100575.69;6008466;22;98399;-36
2024/03/23 07:10:40;;;;;;;4.17;1.40;;;13.80;99.90;;;14.02;58.58;100576.66;6044885;22;127456;-35
2024/03/23 07:13:06;;;;;;;5.60;1.60;;;13.80;99.90;;;14.10;57.70;100570.97;6073834;22;103736;-38
2024/03/23 07:15:33;;;;;;;4.57;1.20;;;13.90;99.90;;;13.84;58.09;100574.94;6074831;22;97861;-38
2024/03/23 07:17:59;;;;;;;5.30;1.20;;;13.60;99.90;;;14.05;59.31;100578.31;6040532;22;97330;-37
2024/03/23 07:20:25;;;;;;;3.47;0.80;;;13.80;99.90;;;14.08;53.62;100572.84;6019659;22;127056;-37
2024/03/23 07:22:50;;;;;;;5.60;1.57;;;13.90;99.90;;;13.72;53.22;100571.13;6059968;23;112109;-38
2024/03/23 07:25:21;;;;;;;3.67;1.57;;;13.70;99.90;;;13.81;58.85;100575.97;6002688;22;97444;-37
2024/03/23 07:27:47;;;;;;;4.57;1.43;;;13.50;99.90;;;13.74;58.69;100585.16;6033208;22;97933;-39
2024/03/23 07:30:12;;;;;;;3.60;1.50;;;13.50;99.90;;;13.66;58.68;100582.88;6050398;22;117554;-37
2024/03/23 07:32:47;;;;;;;2.97;1.40;;;13.50;99.90;;;13.57;53.29;100585.13;6075568;23;126301;-35
2024/03/23 07:35:13;;;;;;;5.57;1.53;;;13.60;99.90;;;13.68;59.24;100577.50;6066306;22;106493;-39
2024/03/23 07:37:39;;;;;;;2.47;1.53;;;13.50;99.90;;;13.16;54.19;100587.94;6038653;23;97976;-36
2024/03/23 07:40:06;;;;;;;4.13;1.50;;;13.30;99.90;;;13.61;59.08;100584.91;6042105;22;110681;-37
2024/03/23 07:42:32;;;;;;;3.23;1.40;;;13.50;99.90;;;13.39;60.07;100590.41;6054539;22;99207;-35
2024/03/23 07:44:57;;;;;;;7.60;1.57;;;13.40;99.90;;;13.59;59.74;100585.91;6032923;22;110741;-42
2024/03/23 07:47:23;;;;;;;5.47;1.87;;;13.60;99.90;;;13.83;55.13;100582.06;6016454;22;106198;-35
2024/03/23 07:49:49;;;;;;;8.57;1.67;;;13.90;99.90;;;13.83;53.96;100590.00;6043552;23;120712;-37
2024/03/23 07:52:15;;;;;;;6.23;1.70;;;14.00;99.90;;;13.28;53.72;100594.47;6063164;22;123239;-37
2024/03/23 07:54:40;;;;;;;4.20;1.80;;;13.60;99.90;;;13.48;56.39;100585.59;6060167;22;109076;-37
2024/03/23 07:57:06;;;;;;;7.43;1.67;;;13.50;99.90;;;13.67;56.02;100584.59;6038743;23;118883;-36
2024/03/23 07:59:35;;;;;;;8.07;1.90;;;13.70;99.90;;;13.23;53.87;100588.56;6056624;22;104655;-34
2024/03/23 08:02:00;;;;;;;4.63;2.50;;;13.40;99.90;;;12.96;57.51;100585.38;6035232;23;107512;-35
2024/03/23 08:04:30;;;;;;;6.23;2.87;;;13.00;99.90;;;12.80;56.71;100580.81;6013973;22;98057;-34
2024/03/23 08:06:56;;;;;;;6.10;2.40;;;12.90;99.90;;;13.01;56.44;100584.22;6052079;22;96827;-37
2024/03/23 08:09:22;;;;;;;9.33;2.53;;;13.00;99.90;;;13.29;60.65;100578.50;6075675;22;97096;-36
2024/03/23 08:11:48;;;;;;;7.80;3.20;;;13.20;99.90;;;13.53;56.68;100570.31;6075067;22;98151;-37
2024/03/23 08:14:14;;;;;;;9.17;3.00;;;13.50;99.90;;;13.74;58.29;100579.84;6066698;22;105661;-37
2024/03/23 08:16:40;;;;;;;5.73;2.77;;;13.70;99.90;;;13.86;57.47;100573.94;6065768;22;109274;-43
2024/03/23 08:19:08;;;;;;;4.10;2.30;;;13.90;99.90;;;13.67;57.63;100579.31;6060700;22;106426;-37
2024/03/23 08:21:34;;;;;;;4.60;2.20;;;13.80;99.90;;;14.00;57.19;100586.50;6062589;22;99260;-35
2024/03/23 08:24:00;;;;;;;5.10;2.10;;;14.00;99.90;;;14.17;57.64;100577.66;6059290;22;97291;-36
2024/03/23 08:26:25;;;;;;;4.13;2.00;;;14.20;99.90;;;14.23;53.45;100582.69;6030893;22;106021;-36
2024/03/23 08:28:51;;;;;;;10.30;2.80;;;14.30;99.90;;;14.07;51.29;100587.06;6071504;22;127173;-35
2024/03/23 08:31:17;;;;;;;2.43;1.70;;;14.20;99.90;;;14.09;51.96;100585.19;6048545;22;113577;-36
2024/03/23 08:33:43;;;;;;;5.63;2.10;;;14.20;99.90;;;13.51;50.03;100582.78;6072519;22;105323;-36
2024/03/23 08:36:12;;;;;;;5.67;2.10;;;13.70;99.90;;;13.33;56.18;100585.41;6034148;22;97724;-37
2024/03/23 08:38:38;;;;;;;4.63;1.53;;;13.40;99.90;;;13.35;53.33;100586.19;6016834;22;102597;-36
2024/03/23 08:41:13;;;;;;;5.87;1.70;;;13.40;99.90;;;13.00;50.09;100592.25;6074802;22;97514;-36
2024/03/23 08:43:41;;;;;;;6.10;2.67;;;13.20;99.90;;;13.26;56.38;100594.56;6062313;22;97598;-38
2024/03/23 08:46:09;;;;;;;4.60;1.47;;;13.20;99.90;;;13.25;52.68;100603.44;6037184;23;97373;-38
2024/03/23 08:48:40;;;;;;;2.20;1.40;;;13.30;99.90;;;13.22;51.32;100585.06;6021887;22;98409;-36
2024/03/23 08:51:08;;;;;;;5.53;1.67;;;13.30;99.90;;;13.06;50.55;100602.56;6047845;22;99113;-35
2024/03/23 08:53:35;;;;;;;1.90;0.80;;;13.30;99.90;;;12.71;53.17;100606.81;6002282;23;101969;-36
2024/03/23 08:56:02;;;;;;;6.47;1.53;;;13.00;99.90;;;12.70;50.79;100616.53;6052172;22;97552;-36
2024/03/23 08:58:31;;;;;;;4.80;0.93;;;12.90;99.90;;;12.47;51.75;100607.00;6030445;22;101352;-36
2024/03/23 09:01:10;;;;;;;4.70;1.10;;;12.70;99.90;;;12.61;51.56;100606.38;6060310;22;97722;-35
2024/03/23 09:03:37;;;;;;;7.47;1.20;;;12.70;99.90;;;12.65;54.65;100600.03;6046159;22;105234;-36
2024/03/23 09:06:18;;;;;;;6.73;1.33;;;12.70;99.90;;;13.13;56.49;100593.38;6051917;22;99355;-37
2024/03/23 09:08:46;;;;;;;3.50;1.30;;;13.10;99.90;;;13.30;54.35;100596.13;6042624;22;104726;-36
2024/03/23 09:11:13;;;;;;;5.07;1.87;;;13.40;99.90;;;13.29;56.40;100594.41;6055901;22;99401;-36
2024/03/23 09:13:42;;;;;;;4.50;1.80;;;13.40;99.90;;;13.51;51.53;100588.09;6061136;22;100094;-35
2024/03/23 09:16:09;;;;;;;7.17;1.67;;;13.70;99.90;;;13.35;50.01;100603.88;6039409;22;97695;-36
2024/03/23 09:18:39;;;;;;;4.53;2.10;;;13.70;99.90;;;13.47;55.05;100589.19;6059875;22;99353;-38
2024/03/23 09:21:11;;;;;;;4.20;1.97;;;13.70;99.90;;;13.37;54.30;100602.00;6009096;22;104869;-35
2024/03/23 09:23:37;;;;;;;7.23;2.00;;;13.60;99.90;;;12.97;51.56;100602.97;6036443;22;97237;-36
2024/03/23 09:26:04;;;;;;;6.63;2.10;;;13.30;99.90;;;13.39;52.93;100598.34;6054907;22;97794;-37
2024/03/23 09:28:30;;;;;;;3.90;1.93;;;13.60;99.90;;;13.30;56.35;100596.13;6004981;22;97448;-37
2024/03/23 09:31:05;;;;;;;2.77;1.73;;;13.40;99.90;;;13.50;56.79;100581.06;6023294;22;100392;-39
2024/03/23 09:33:30;;;;;;;3.00;1.67;;;13.50;99.90;;;13.72;55.12;100580.84;6071699;22;97997;-36
2024/03/23 09:35:56;;;;;;;3.47;1.30;;;13.80;99.90;;;13.47;50.42;100586.53;6063609;23;108334;-36
2024/03/23 09:38:25;;;;;;;3.43;1.43;;;13.70;99.90;;;13.47;49.56;100589.19;6029973;22;100332;-35
2024/03/23 09:40:53;;;;;;;5.20;1.50;;;13.70;99.90;;;12.98;48.46;100587.03;6022053;23;116868;-37
2024/03/23 09:43:22;;;;;;;5.20;1.93;;;13.30;99.90;;;13.09;55.94;100587.38;6051211;22;104764;-33
2024/03/23 09:45:49;;;;;;;4.67;1.77;;;13.20;99.90;;;13.45;54.65;100580.41;6057214;22;105519;-34
2024/03/23 09:48:18;;;;;;;2.47;1.03;;;13.50;99.90;;;13.10;49.19;100582.94;6037597;22;100213;-36
2024/03/23 09:50:45;;;;;;;4.03;1.40;;;13.40;99.90;;;12.93;51.30;100573.16;6031037;22;99270;-36
2024/03/23 09:53:13;;;;;;;3.90;1.33;;;13.20;99.90;;;12.56;48.55;100583.69;6043088;22;97380;-34
2024/03/23 09:55:44;;;;;;;7.27;1.40;;;12.90;99.90;;;12.81;52.64;100581.66;6058659;23;97598;-36
2024/03/23 09:58:17;;;;;;;6.73;1.43;;;12.90;99.90;;;12.41;47.77;100577.28;6046437;22;98483;-37
2024/03/23 10:00:43;;;;;;;2.30;0.93;;;12.80;99.90;;;12.21;48.40;100581.69;6020073;23;97971;-36
2024/03/23 10:03:11;;;;;;;3.97;1.13;;;12.50;99.90;;;12.45;51.29;100579.75;6045525;22;98007;-37
2024/03/23 10:05:38;;;;;;;2.57;0.93;;;12.60;99.90;;;12.21;47.98;100580.84;6048112;23;99237;-36
2024/03/23 10:08:19;;;;;;;2.70;1.10;;;12.50;99.90;;;11.94;48.00;100564.38;5986380;23;99218;-37
2024/03/23 10:10:46;;;;;;;4.27;0.67;;;12.20;99.90;;;11.88;47.72;100569.94;6022855;22;106769;-38